Alvo, Nebraska
Current Conditions -  °F | °C
As of 3:54 AM on Sunday 21 Dec 2014 (Local Time) from KLNK Reporting Station
Overcast Overcast  
Wind Chill: 30°   Ceiling: 800
Heat Index: 38°   Visibility: 7mi
Dew Point: 36°   Wind: 12mph
Humidity: 93%   Direction: 190°S
Pressure: 29.94"   Gusts: NA
Location:  40.87°N, 96.39°W
Report Text: KLNK 210954Z AUTO 19010KT 7SM OVC008 03/02 A2994 RMK AO2 SLP146 T00330022
Loading
Personal Weather Stations






























Interactive Weather Map New forecast layout! Learn more

10-Day Weather Forecast

Advertisements
Track Severe Weather on mobile